sensor_id;sensor_type;location;lat;lon;timestamp;pressure;altitude;pressure_sealevel;temperature;humidity
56992;BME280;42885;49.754;18.636;2023-07-31T00:00:18;97942.42;;;20.86;100.00
56992;BME280;42885;49.754;18.636;2023-07-31T00:02:52;97949.22;;;20.80;100.00
56992;BME280;42885;49.754;18.636;2023-07-31T00:05:23;97953.86;;;20.82;100.00
56992;BME280;42885;49.754;18.636;2023-07-31T00:07:54;97954.06;;;20.93;100.00
56992;BME280;42885;49.754;18.636;2023-07-31T00:10:30;97951.73;;;20.86;100.00
56992;BME280;42885;49.754;18.636;2023-07-31T00:13:03;97951.34;;;20.56;100.00
56992;BME280;42885;49.754;18.636;2023-07-31T00:15:35;97944.89;;;21.08;100.00
56992;BME280;42885;49.754;18.636;2023-07-31T00:18:06;97947.70;;;21.88;100.00
56992;BME280;42885;49.754;18.636;2023-07-31T00:20:40;97956.20;;;20.94;100.00
56992;BME280;42885;49.754;18.636;2023-07-31T00:23:11;97951.06;;;21.00;100.00
56992;BME280;42885;49.754;18.636;2023-07-31T00:25:45;97955.38;;;20.97;100.00
56992;BME280;42885;49.754;18.636;2023-07-31T00:28:25;97951.68;;;20.57;100.00
56992;BME280;42885;49.754;18.636;2023-07-31T00:30:57;97953.19;;;20.76;100.00
56992;BME280;42885;49.754;18.636;2023-07-31T00:33:32;97953.72;;;20.88;100.00
56992;BME280;42885;49.754;18.636;2023-07-31T00:36:02;97948.57;;;20.90;100.00
56992;BME280;42885;49.754;18.636;2023-07-31T00:38:33;97938.92;;;21.06;100.00
56992;BME280;42885;49.754;18.636;2023-07-31T00:41:04;97945.19;;;21.26;100.00
56992;BME280;42885;49.754;18.636;2023-07-31T00:43:35;97948.53;;;21.24;100.00
56992;BME280;42885;49.754;18.636;2023-07-31T00:46:06;97945.02;;;21.23;100.00
56992;BME280;42885;49.754;18.636;2023-07-31T00:48:38;97952.52;;;21.20;100.00
56992;BME280;42885;49.754;18.636;2023-07-31T00:51:10;97952.81;;;21.41;100.00
56992;BME280;42885;49.754;18.636;2023-07-31T00:53:45;97945.53;;;21.18;100.00
56992;BME280;42885;49.754;18.636;2023-07-31T00:56:16;97956.88;;;21.00;100.00
56992;BME280;42885;49.754;18.636;2023-07-31T00:58:53;97955.89;;;20.97;100.00
56992;BME280;42885;49.754;18.636;2023-07-31T01:01:24;97945.06;;;21.11;100.00
56992;BME280;42885;49.754;18.636;2023-07-31T01:03:55;97952.40;;;21.00;100.00
56992;BME280;42885;49.754;18.636;2023-07-31T01:06:36;97949.41;;;20.87;100.00
56992;BME280;42885;49.754;18.636;2023-07-31T01:11:52;97957.18;;;20.76;100.00
56992;BME280;42885;49.754;18.636;2023-07-31T01:14:24;97959.99;;;20.74;100.00
56992;BME280;42885;49.754;18.636;2023-07-31T01:16:55;97961.20;;;20.93;100.00
56992;BME280;42885;49.754;18.636;2023-07-31T01:19:26;97971.16;;;20.95;100.00
56992;BME280;42885;49.754;18.636;2023-07-31T01:27:23;97970.52;;;21.05;100.00
56992;BME280;42885;49.754;18.636;2023-07-31T01:30:00;97979.47;;;20.87;100.00
56992;BME280;42885;49.754;18.636;2023-07-31T01:32:29;97983.59;;;20.65;100.00
56992;BME280;42885;49.754;18.636;2023-07-31T01:35:01;97975.97;;;21.08;100.00
56992;BME280;42885;49.754;18.636;2023-07-31T01:37:35;97981.30;;;20.91;100.00
56992;BME280;42885;49.754;18.636;2023-07-31T01:40:07;97983.63;;;20.98;100.00
56992;BME280;42885;49.754;18.636;2023-07-31T01:42:40;97984.80;;;21.00;100.00
56992;BME280;42885;49.754;18.636;2023-07-31T01:45:11;97977.98;;;21.18;100.00
56992;BME280;42885;49.754;18.636;2023-07-31T01:47:42;97982.80;;;21.14;100.00
56992;BME280;42885;49.754;18.636;2023-07-31T01:50:15;97982.98;;;21.00;100.00
56992;BME280;42885;49.754;18.636;2023-07-31T01:52:58;97981.63;;;21.21;100.00
56992;BME280;42885;49.754;18.636;2023-07-31T01:55:29;97979.16;;;20.99;100.00
56992;BME280;42885;49.754;18.636;2023-07-31T01:58:16;97982.14;;;21.00;100.00
56992;BME280;42885;49.754;18.636;2023-07-31T02:00:47;97982.78;;;20.81;100.00
56992;BME280;42885;49.754;18.636;2023-07-31T02:03:18;97987.41;;;20.79;100.00
56992;BME280;42885;49.754;18.636;2023-07-31T02:05:50;97983.45;;;20.87;100.00
56992;BME280;42885;49.754;18.636;2023-07-31T02:08:21;97979.33;;;20.93;100.00
56992;BME280;42885;49.754;18.636;2023-07-31T02:10:55;97981.31;;;20.95;100.00
56992;BME280;42885;49.754;18.636;2023-07-31T02:13:25;97983.31;;;21.01;100.00
56992;BME280;42885;49.754;18.636;2023-07-31T02:15:59;97989.28;;;20.83;100.00
56992;BME280;42885;49.754;18.636;2023-07-31T02:18:32;97990.11;;;20.96;100.00
56992;BME280;42885;49.754;18.636;2023-07-31T02:21:05;97987.46;;;21.08;100.00
56992;BME280;42885;49.754;18.636;2023-07-31T02:23:36;97995.42;;;21.12;100.00
56992;BME280;42885;49.754;18.636;2023-07-31T02:26:08;97998.09;;;21.08;100.00
56992;BME280;42885;49.754;18.636;2023-07-31T02:28:42;97992.78;;;21.00;100.00
56992;BME280;42885;49.754;18.636;2023-07-31T02:31:16;98001.92;;;21.06;100.00
56992;BME280;42885;49.754;18.636;2023-07-31T02:33:48;98001.74;;;21.11;100.00
56992;BME280;42885;49.754;18.636;2023-07-31T02:36:20;98004.73;;;21.12;100.00
56992;BME280;42885;49.754;18.636;2023-07-31T02:38:54;98006.42;;;21.05;100.00
56992;BME280;42885;49.754;18.636;2023-07-31T02:41:25;98003.40;;;21.21;100.00
56992;BME280;42885;49.754;18.636;2023-07-31T02:43:59;98008.41;;;21.15;100.00
56992;BME280;42885;49.754;18.636;2023-07-31T02:46:30;98006.25;;;21.19;100.00
56992;BME280;42885;49.754;18.636;2023-07-31T02:49:02;98003.09;;;21.15;100.00
56992;BME280;42885;49.754;18.636;2023-07-31T02:51:36;98010.08;;;21.08;100.00
56992;BME280;42885;49.754;18.636;2023-07-31T02:54:16;98011.75;;;21.05;100.00
56992;BME280;42885;49.754;18.636;2023-07-31T02:56:48;98014.55;;;20.99;100.00
56992;BME280;42885;49.754;18.636;2023-07-31T02:59:19;98018.05;;;20.83;100.00
56992;BME280;42885;49.754;18.636;2023-07-31T03:01:50;98016.00;;;20.77;100.00
56992;BME280;42885;49.754;18.636;2023-07-31T03:04:21;98014.56;;;20.87;100.00
56992;BME280;42885;49.754;18.636;2023-07-31T03:06:52;98020.00;;;20.77;100.00
56992;BME280;42885;49.754;18.636;2023-07-31T03:09:32;98026.14;;;20.73;100.00
56992;BME280;42885;49.754;18.636;2023-07-31T03:12:03;98030.48;;;20.79;100.00
56992;BME280;42885;49.754;18.636;2023-07-31T03:14:34;98026.97;;;20.78;100.00
56992;BME280;42885;49.754;18.636;2023-07-31T03:17:05;98031.78;;;20.74;100.00
56992;BME280;42885;49.754;18.636;2023-07-31T03:19:39;98033.95;;;20.67;100.00
56992;BME280;42885;49.754;18.636;2023-07-31T03:22:11;98031.27;;;20.62;100.00
56992;BME280;42885;49.754;18.636;2023-07-31T03:24:42;98036.66;;;20.83;100.00
56992;BME280;42885;49.754;18.636;2023-07-31T03:27:13;98034.96;;;20.74;100.00
56992;BME280;42885;49.754;18.636;2023-07-31T03:29:50;98033.35;;;20.89;100.00
56992;BME280;42885;49.754;18.636;2023-07-31T03:32:21;98040.61;;;20.75;100.00
56992;BME280;42885;49.754;18.636;2023-07-31T03:34:55;98046.62;;;20.85;100.00
56992;BME280;42885;49.754;18.636;2023-07-31T03:37:35;98051.30;;;20.92;100.00
56992;BME280;42885;49.754;18.636;2023-07-31T03:40:07;98050.04;;;20.53;100.00
56992;BME280;42885;49.754;18.636;2023-07-31T03:42:39;98050.95;;;20.27;100.00
56992;BME280;42885;49.754;18.636;2023-07-31T03:45:10;98057.23;;;20.17;100.00
56992;BME280;42885;49.754;18.636;2023-07-31T03:47:41;98061.00;;;20.11;100.00
56992;BME280;42885;49.754;18.636;2023-07-31T03:50:12;98063.18;;;20.11;100.00
56992;BME280;42885;49.754;18.636;2023-07-31T03:52:43;98068.49;;;20.11;100.00
56992;BME280;42885;49.754;18.636;2023-07-31T03:55:13;98064.95;;;19.98;100.00
56992;BME280;42885;49.754;18.636;2023-07-31T03:57:44;98065.58;;;19.96;100.00
56992;BME280;42885;49.754;18.636;2023-07-31T04:00:15;98056.87;;;19.86;100.00
56992;BME280;42885;49.754;18.636;2023-07-31T04:02:46;98068.41;;;20.38;100.00
56992;BME280;42885;49.754;18.636;2023-07-31T04:05:17;98064.98;;;20.06;100.00
56992;BME280;42885;49.754;18.636;2023-07-31T04:07:48;98075.53;;;19.94;100.00
56992;BME280;42885;49.754;18.636;2023-07-31T04:10:22;98071.55;;;19.94;100.00
56992;BME280;42885;49.754;18.636;2023-07-31T04:12:52;98071.80;;;19.87;100.00
56992;BME280;42885;49.754;18.636;2023-07-31T04:15:23;98067.53;;;19.90;100.00
56992;BME280;42885;49.754;18.636;2023-07-31T04:17:57;98070.09;;;19.73;100.00
56992;BME280;42885;49.754;18.636;2023-07-31T04:20:29;98063.77;;;20.35;100.00
56992;BME280;42885;49.754;18.636;2023-07-31T04:23:03;98061.41;;;20.28;100.00
56992;BME280;42885;49.754;18.636;2023-07-31T04:25:34;98064.39;;;20.76;100.00
56992;BME280;42885;49.754;18.636;2023-07-31T04:28:15;98066.02;;;20.73;100.00
56992;BME280;42885;49.754;18.636;2023-07-31T04:31:02;98062.36;;;19.88;100.00
56992;BME280;42885;49.754;18.636;2023-07-31T04:33:34;98066.78;;;19.79;100.00
56992;BME280;42885;49.754;18.636;2023-07-31T04:36:05;98070.66;;;19.89;100.00
56992;BME280;42885;49.754;18.636;2023-07-31T04:38:36;98072.30;;;20.13;100.00
56992;BME280;42885;49.754;18.636;2023-07-31T04:41:09;98069.45;;;20.02;100.00
56992;BME280;42885;49.754;18.636;2023-07-31T04:43:43;98072.09;;;20.45;100.00
56992;BME280;42885;49.754;18.636;2023-07-31T04:46:14;98075.41;;;20.98;100.00
56992;BME280;42885;49.754;18.636;2023-07-31T04:48:45;98076.92;;;20.45;100.00
56992;BME280;42885;49.754;18.636;2023-07-31T04:51:16;98086.61;;;20.59;100.00
56992;BME280;42885;49.754;18.636;2023-07-31T04:53:47;98083.69;;;20.31;100.00
56992;BME280;42885;49.754;18.636;2023-07-31T04:56:17;98081.95;;;20.65;100.00
56992;BME280;42885;49.754;18.636;2023-07-31T04:58:52;98082.48;;;20.73;100.00
56992;BME280;42885;49.754;18.636;2023-07-31T05:01:22;98077.20;;;20.26;100.00
56992;BME280;42885;49.754;18.636;2023-07-31T05:03:53;98072.70;;;20.26;100.00
56992;BME280;42885;49.754;18.636;2023-07-31T05:06:33;98073.06;;;20.35;100.00
56992;BME280;42885;49.754;18.636;2023-07-31T05:09:04;98077.95;;;20.57;100.00
56992;BME280;42885;49.754;18.636;2023-07-31T05:11:38;98077.81;;;20.71;100.00
56992;BME280;42885;49.754;18.636;2023-07-31T05:14:20;98077.88;;;20.87;100.00
56992;BME280;42885;49.754;18.636;2023-07-31T05:16:51;98076.12;;;20.61;100.00
56992;BME280;42885;49.754;18.636;2023-07-31T05:19:34;98079.14;;;20.67;100.00
56992;BME280;42885;49.754;18.636;2023-07-31T05:22:05;98080.18;;;20.82;100.00
56992;BME280;42885;49.754;18.636;2023-07-31T05:24:36;98079.16;;;20.79;100.00
56992;BME280;42885;49.754;18.636;2023-07-31T05:27:13;98078.56;;;21.02;100.00
56992;BME280;42885;49.754;18.636;2023-07-31T05:29:45;98072.75;;;21.15;100.00
56992;BME280;42885;49.754;18.636;2023-07-31T05:32:16;98078.41;;;21.03;100.00
56992;BME280;42885;49.754;18.636;2023-07-31T05:34:47;98074.77;;;21.00;100.00
56992;BME280;42885;49.754;18.636;2023-07-31T05:37:18;98079.55;;;20.84;100.00
56992;BME280;42885;49.754;18.636;2023-07-31T05:39:49;98078.73;;;20.84;100.00
56992;BME280;42885;49.754;18.636;2023-07-31T05:42:34;98076.50;;;20.75;100.00
56992;BME280;42885;49.754;18.636;2023-07-31T05:45:07;98075.84;;;20.77;100.00
56992;BME280;42885;49.754;18.636;2023-07-31T05:47:38;98077.57;;;21.11;100.00
56992;BME280;42885;49.754;18.636;2023-07-31T05:50:09;98075.75;;;21.03;100.00
56992;BME280;42885;49.754;18.636;2023-07-31T05:52:57;98069.42;;;20.84;100.00
56992;BME280;42885;49.754;18.636;2023-07-31T05:55:28;98069.28;;;21.14;100.00
56992;BME280;42885;49.754;18.636;2023-07-31T05:58:00;98069.11;;;21.20;100.00
56992;BME280;42885;49.754;18.636;2023-07-31T06:00:39;98067.52;;;22.00;100.00
56992;BME280;42885;49.754;18.636;2023-07-31T06:03:10;98087.56;;;21.34;100.00
56992;BME280;42885;49.754;18.636;2023-07-31T06:08:17;98072.37;;;21.89;100.00
56992;BME280;42885;49.754;18.636;2023-07-31T06:10:55;98087.05;;;21.55;100.00
56992;BME280;42885;49.754;18.636;2023-07-31T06:13:25;98086.38;;;21.57;100.00
56992;BME280;42885;49.754;18.636;2023-07-31T06:16:05;98079.07;;;21.72;100.00
56992;BME280;42885;49.754;18.636;2023-07-31T06:18:42;98075.86;;;21.93;100.00
56992;BME280;42885;49.754;18.636;2023-07-31T06:21:13;98077.30;;;22.12;100.00
56992;BME280;42885;49.754;18.636;2023-07-31T06:23:44;98079.67;;;21.99;100.00
56992;BME280;42885;49.754;18.636;2023-07-31T06:26:17;98080.97;;;22.07;100.00
56992;BME280;42885;49.754;18.636;2023-07-31T06:28:48;98092.03;;;21.88;100.00
56992;BME280;42885;49.754;18.636;2023-07-31T06:31:19;98087.52;;;21.92;100.00
56992;BME280;42885;49.754;18.636;2023-07-31T06:33:52;98086.17;;;22.00;100.00
56992;BME280;42885;49.754;18.636;2023-07-31T06:36:22;98091.94;;;22.65;100.00
56992;BME280;42885;49.754;18.636;2023-07-31T06:38:57;98093.30;;;22.17;100.00
56992;BME280;42885;49.754;18.636;2023-07-31T06:41:28;98092.11;;;22.63;99.29
56992;BME280;42885;49.754;18.636;2023-07-31T06:43:58;98093.67;;;22.81;94.16
56992;BME280;42885;49.754;18.636;2023-07-31T06:46:32;98089.98;;;22.86;92.12
56992;BME280;42885;49.754;18.636;2023-07-31T06:49:03;98093.17;;;22.81;90.56
56992;BME280;42885;49.754;18.636;2023-07-31T06:51:37;98095.37;;;22.78;93.47
56992;BME280;42885;49.754;18.636;2023-07-31T06:54:09;98094.36;;;23.02;94.99
56992;BME280;42885;49.754;18.636;2023-07-31T06:56:39;98094.30;;;23.10;96.50
56992;BME280;42885;49.754;18.636;2023-07-31T06:59:10;98103.98;;;22.48;97.79
56992;BME280;42885;49.754;18.636;2023-07-31T07:01:41;98099.34;;;22.42;100.00
56992;BME280;42885;49.754;18.636;2023-07-31T07:04:13;98098.27;;;22.20;100.00
56992;BME280;42885;49.754;18.636;2023-07-31T07:06:44;98101.39;;;22.76;100.00
56992;BME280;42885;49.754;18.636;2023-07-31T07:09:16;98104.55;;;22.75;98.82
56992;BME280;42885;49.754;18.636;2023-07-31T07:11:47;98101.70;;;23.85;97.40
56992;BME280;42885;49.754;18.636;2023-07-31T07:14:18;98108.66;;;23.09;100.00
56992;BME280;42885;49.754;18.636;2023-07-31T07:17:00;98103.66;;;22.47;97.75
56992;BME280;42885;49.754;18.636;2023-07-31T07:19:31;98103.69;;;23.34;98.02
56992;BME280;42885;49.754;18.636;2023-07-31T07:22:05;98106.08;;;22.30;93.72
56992;BME280;42885;49.754;18.636;2023-07-31T07:24:36;98100.80;;;22.49;92.66
56992;BME280;42885;49.754;18.636;2023-07-31T07:27:07;98097.00;;;22.51;94.59
56992;BME280;42885;49.754;18.636;2023-07-31T07:29:45;98101.77;;;22.64;94.19
56992;BME280;42885;49.754;18.636;2023-07-31T07:32:15;98095.69;;;23.06;90.58
56992;BME280;42885;49.754;18.636;2023-07-31T07:34:48;98094.19;;;23.31;93.21
56992;BME280;42885;49.754;18.636;2023-07-31T07:37:19;98093.93;;;23.60;86.08
56992;BME280;42885;49.754;18.636;2023-07-31T07:39:50;98095.17;;;24.07;84.66
56992;BME280;42885;49.754;18.636;2023-07-31T07:42:26;98089.04;;;23.98;83.64
56992;BME280;42885;49.754;18.636;2023-07-31T07:44:57;98092.97;;;23.91;85.80
56992;BME280;42885;49.754;18.636;2023-07-31T07:47:31;98089.90;;;23.64;85.48
56992;BME280;42885;49.754;18.636;2023-07-31T07:50:02;98087.01;;;23.85;86.37
56992;BME280;42885;49.754;18.636;2023-07-31T07:52:45;98096.36;;;23.85;81.32
56992;BME280;42885;49.754;18.636;2023-07-31T07:55:22;98094.63;;;23.92;78.42
56992;BME280;42885;49.754;18.636;2023-07-31T07:57:53;98091.80;;;23.75;76.98
56992;BME280;42885;49.754;18.636;2023-07-31T08:00:24;98092.30;;;24.24;75.75
56992;BME280;42885;49.754;18.636;2023-07-31T08:02:58;98094.55;;;23.82;78.07
56992;BME280;42885;49.754;18.636;2023-07-31T08:05:34;98099.20;;;24.33;76.83
56992;BME280;42885;49.754;18.636;2023-07-31T08:08:08;98105.77;;;24.15;74.39
56992;BME280;42885;49.754;18.636;2023-07-31T08:10:39;98102.84;;;23.91;73.48
56992;BME280;42885;49.754;18.636;2023-07-31T08:13:21;98095.58;;;23.81;79.02
56992;BME280;42885;49.754;18.636;2023-07-31T08:15:55;98093.27;;;23.62;75.62
56992;BME280;42885;49.754;18.636;2023-07-31T08:18:26;98098.39;;;23.83;78.21
56992;BME280;42885;49.754;18.636;2023-07-31T08:21:01;98093.41;;;23.46;74.87
56992;BME280;42885;49.754;18.636;2023-07-31T08:23:35;98098.45;;;23.41;78.27
56992;BME280;42885;49.754;18.636;2023-07-31T08:26:06;98094.85;;;23.87;75.80
56992;BME280;42885;49.754;18.636;2023-07-31T08:28:40;98090.48;;;24.50;77.57
56992;BME280;42885;49.754;18.636;2023-07-31T08:31:11;98095.69;;;24.02;73.55
56992;BME280;42885;49.754;18.636;2023-07-31T08:33:44;98097.67;;;23.55;76.90
56992;BME280;42885;49.754;18.636;2023-07-31T08:36:15;98099.03;;;23.85;72.49
56992;BME280;42885;49.754;18.636;2023-07-31T08:38:50;98102.48;;;23.36;77.09
56992;BME280;42885;49.754;18.636;2023-07-31T08:41:21;98103.75;;;22.98;82.67
56992;BME280;42885;49.754;18.636;2023-07-31T08:43:52;98097.84;;;23.88;79.13
56992;BME280;42885;49.754;18.636;2023-07-31T08:46:25;98097.84;;;23.88;79.13
56992;BME280;42885;49.754;18.636;2023-07-31T08:49:04;98104.34;;;23.89;73.72
56992;BME280;42885;49.754;18.636;2023-07-31T08:51:36;98108.03;;;23.31;68.20
56992;BME280;42885;49.754;18.636;2023-07-31T08:54:07;98109.33;;;23.73;70.40
56992;BME280;42885;49.754;18.636;2023-07-31T08:56:40;98090.63;;;24.38;67.29
56992;BME280;42885;49.754;18.636;2023-07-31T08:59:16;98096.81;;;24.23;67.32
56992;BME280;42885;49.754;18.636;2023-07-31T09:01:50;98088.92;;;24.78;71.94
56992;BME280;42885;49.754;18.636;2023-07-31T09:04:23;98086.00;;;25.09;67.08
56992;BME280;42885;49.754;18.636;2023-07-31T09:06:56;98075.60;;;25.10;69.87
56992;BME280;42885;49.754;18.636;2023-07-31T09:09:27;98079.02;;;25.59;66.19
56992;BME280;42885;49.754;18.636;2023-07-31T09:12:01;98085.70;;;24.30;70.09
56992;BME280;42885;49.754;18.636;2023-07-31T09:14:32;98074.75;;;24.51;63.41
56992;BME280;42885;49.754;18.636;2023-07-31T09:17:04;98080.87;;;24.15;63.49
56992;BME280;42885;49.754;18.636;2023-07-31T09:19:36;98072.03;;;24.66;67.17
56992;BME280;42885;49.754;18.636;2023-07-31T09:22:07;98077.70;;;24.67;64.17
56992;BME280;42885;49.754;18.636;2023-07-31T09:24:38;98077.26;;;25.11;65.78
56992;BME280;42885;49.754;18.636;2023-07-31T09:27:12;98079.33;;;25.60;64.77
56992;BME280;42885;49.754;18.636;2023-07-31T09:29:44;98077.19;;;25.77;60.55
56992;BME280;42885;49.754;18.636;2023-07-31T09:32:17;98065.23;;;26.15;59.18
56992;BME280;42885;49.754;18.636;2023-07-31T09:34:50;98070.75;;;25.21;60.87
56992;BME280;42885;49.754;18.636;2023-07-31T09:37:21;98067.30;;;25.16;62.33
56992;BME280;42885;49.754;18.636;2023-07-31T09:39:58;98067.92;;;25.62;65.74
56992;BME280;42885;49.754;18.636;2023-07-31T09:42:35;98052.80;;;25.43;63.36
56992;BME280;42885;49.754;18.636;2023-07-31T09:45:09;98057.39;;;25.38;61.32
56992;BME280;42885;49.754;18.636;2023-07-31T09:47:49;98053.87;;;25.20;56.91
56992;BME280;42885;49.754;18.636;2023-07-31T09:50:24;98052.00;;;25.53;60.69
56992;BME280;42885;49.754;18.636;2023-07-31T09:52:55;98048.06;;;25.17;55.54
56992;BME280;42885;49.754;18.636;2023-07-31T09:55:39;98043.66;;;24.98;54.69
56992;BME280;42885;49.754;18.636;2023-07-31T09:58:17;98046.75;;;25.45;56.05
56992;BME280;42885;49.754;18.636;2023-07-31T10:00:48;98051.13;;;25.64;56.46
56992;BME280;42885;49.754;18.636;2023-07-31T10:03:26;98051.34;;;25.51;56.64
56992;BME280;42885;49.754;18.636;2023-07-31T10:05:58;98042.56;;;25.64;57.53
56992;BME280;42885;49.754;18.636;2023-07-31T10:08:30;98036.94;;;26.05;53.52
56992;BME280;42885;49.754;18.636;2023-07-31T10:11:09;98035.39;;;27.81;54.54
56992;BME280;42885;49.754;18.636;2023-07-31T10:13:41;98034.58;;;27.40;49.20
56992;BME280;42885;49.754;18.636;2023-07-31T10:16:13;98028.71;;;27.20;46.74
56992;BME280;42885;49.754;18.636;2023-07-31T10:18:46;98028.07;;;27.59;46.39
56992;BME280;42885;49.754;18.636;2023-07-31T10:21:21;98026.34;;;26.32;48.08
56992;BME280;42885;49.754;18.636;2023-07-31T10:23:58;98035.07;;;26.48;48.89
56992;BME280;42885;49.754;18.636;2023-07-31T10:26:33;98034.25;;;26.05;49.06
56992;BME280;42885;49.754;18.636;2023-07-31T10:29:06;98040.51;;;26.44;51.69
56992;BME280;42885;49.754;18.636;2023-07-31T10:31:41;98034.06;;;27.34;49.19
56992;BME280;42885;49.754;18.636;2023-07-31T10:34:13;98031.30;;;27.58;51.78
56992;BME280;42885;49.754;18.636;2023-07-31T10:36:44;98020.22;;;27.44;45.95
56992;BME280;42885;49.754;18.636;2023-07-31T10:39:35;98025.27;;;27.70;45.27
56992;BME280;42885;49.754;18.636;2023-07-31T10:42:15;98021.84;;;27.72;43.16
56992;BME280;42885;49.754;18.636;2023-07-31T10:44:47;98012.17;;;27.37;45.59
56992;BME280;42885;49.754;18.636;2023-07-31T10:47:18;98027.55;;;27.46;44.59
56992;BME280;42885;49.754;18.636;2023-07-31T10:49:49;98013.91;;;27.47;43.62
56992;BME280;42885;49.754;18.636;2023-07-31T10:52:21;98013.71;;;27.49;46.05
56992;BME280;42885;49.754;18.636;2023-07-31T10:55:24;98012.23;;;27.73;43.35
56992;BME280;42885;49.754;18.636;2023-07-31T10:57:47;98004.07;;;27.78;44.41
56992;BME280;42885;49.754;18.636;2023-07-31T11:00:20;98007.06;;;27.79;42.54
56992;BME280;42885;49.754;18.636;2023-07-31T11:03:00;98004.62;;;27.57;41.42
56992;BME280;42885;49.754;18.636;2023-07-31T11:08:35;97999.47;;;28.76;42.37
56992;BME280;42885;49.754;18.636;2023-07-31T11:11:08;97998.59;;;28.05;41.72
56992;BME280;42885;49.754;18.636;2023-07-31T11:13:47;97992.91;;;28.33;42.65
56992;BME280;42885;49.754;18.636;2023-07-31T11:16:25;97992.91;;;28.33;42.65
56992;BME280;42885;49.754;18.636;2023-07-31T11:18:56;98000.17;;;28.65;41.91
56992;BME280;42885;49.754;18.636;2023-07-31T11:21:28;98002.53;;;28.32;40.67
56992;BME280;42885;49.754;18.636;2023-07-31T11:24:01;97988.17;;;28.28;41.33
56992;BME280;42885;49.754;18.636;2023-07-31T11:26:38;97986.34;;;29.19;43.32
56992;BME280;42885;49.754;18.636;2023-07-31T11:29:12;97989.08;;;29.12;41.33
56992;BME280;42885;49.754;18.636;2023-07-31T11:31:44;97992.97;;;29.07;40.28
56992;BME280;42885;49.754;18.636;2023-07-31T11:34:21;97989.74;;;28.75;39.90
56992;BME280;42885;49.754;18.636;2023-07-31T11:36:55;97989.14;;;29.05;38.07
56992;BME280;42885;49.754;18.636;2023-07-31T11:39:25;97988.07;;;28.97;37.89
56992;BME280;42885;49.754;18.636;2023-07-31T11:42:00;97995.85;;;29.47;40.47
56992;BME280;42885;49.754;18.636;2023-07-31T11:44:39;97994.70;;;28.62;40.83
56992;BME280;42885;49.754;18.636;2023-07-31T11:47:17;97995.67;;;28.91;41.15
56992;BME280;42885;49.754;18.636;2023-07-31T11:49:53;97992.75;;;29.18;40.65
56992;BME280;42885;49.754;18.636;2023-07-31T11:52:25;97988.22;;;29.90;38.14
56992;BME280;42885;49.754;18.636;2023-07-31T11:54:57;97992.64;;;28.64;39.21
56992;BME280;42885;49.754;18.636;2023-07-31T11:57:28;97984.81;;;29.39;39.35
56992;BME280;42885;49.754;18.636;2023-07-31T11:59:59;97973.61;;;30.17;37.33
56992;BME280;42885;49.754;18.636;2023-07-31T12:02:34;97972.56;;;30.18;36.86
56992;BME280;42885;49.754;18.636;2023-07-31T12:05:06;97966.16;;;30.52;37.22
56992;BME280;42885;49.754;18.636;2023-07-31T12:07:46;97959.92;;;30.40;37.06
56992;BME280;42885;49.754;18.636;2023-07-31T12:10:28;97959.92;;;30.61;36.84
56992;BME280;42885;49.754;18.636;2023-07-31T12:13:04;97965.77;;;29.78;38.00
56992;BME280;42885;49.754;18.636;2023-07-31T12:15:43;97956.84;;;29.59;38.80
56992;BME280;42885;49.754;18.636;2023-07-31T12:18:18;97948.97;;;29.94;39.34
56992;BME280;42885;49.754;18.636;2023-07-31T12:20:54;97947.31;;;29.84;39.19
56992;BME280;42885;49.754;18.636;2023-07-31T12:23:30;97948.75;;;28.18;39.42
56992;BME280;42885;49.754;18.636;2023-07-31T12:26:15;97941.56;;;29.52;38.23
56992;BME280;42885;49.754;18.636;2023-07-31T12:28:47;97935.61;;;30.70;38.69
56992;BME280;42885;49.754;18.636;2023-07-31T12:31:21;97928.20;;;29.95;38.53
56992;BME280;42885;49.754;18.636;2023-07-31T12:33:53;97928.20;;;29.95;38.53
56992;BME280;42885;49.754;18.636;2023-07-31T12:36:26;97941.91;;;29.84;39.63
56992;BME280;42885;49.754;18.636;2023-07-31T12:39:05;97939.62;;;29.16;39.57
56992;BME280;42885;49.754;18.636;2023-07-31T12:41:43;97928.55;;;30.27;37.74
56992;BME280;42885;49.754;18.636;2023-07-31T12:44:13;97928.08;;;29.08;38.12
56992;BME280;42885;49.754;18.636;2023-07-31T12:46:47;97913.80;;;30.01;39.11
56992;BME280;42885;49.754;18.636;2023-07-31T12:49:18;97931.41;;;28.85;39.00
56992;BME280;42885;49.754;18.636;2023-07-31T12:51:49;97931.42;;;29.38;38.79
56992;BME280;42885;49.754;18.636;2023-07-31T12:54:20;97917.50;;;30.49;36.46
56992;BME280;42885;49.754;18.636;2023-07-31T12:56:50;97925.59;;;30.49;37.07
56992;BME280;42885;49.754;18.636;2023-07-31T12:59:23;97919.23;;;30.98;36.44
56992;BME280;42885;49.754;18.636;2023-07-31T13:01:54;97911.98;;;30.04;39.43
56992;BME280;42885;49.754;18.636;2023-07-31T13:04:25;97931.55;;;29.34;39.45
56992;BME280;42885;49.754;18.636;2023-07-31T13:07:03;97927.55;;;29.44;38.08
56992;BME280;42885;49.754;18.636;2023-07-31T13:09:50;97917.69;;;29.12;37.84
56992;BME280;42885;49.754;18.636;2023-07-31T13:12:05;97912.95;;;30.29;39.90
56992;BME280;42885;49.754;18.636;2023-07-31T13:14:36;97911.13;;;31.46;38.18
56992;BME280;42885;49.754;18.636;2023-07-31T13:17:13;97909.25;;;32.14;34.64
56992;BME280;42885;49.754;18.636;2023-07-31T13:19:50;97909.66;;;32.52;33.33
56992;BME280;42885;49.754;18.636;2023-07-31T13:22:24;97911.88;;;32.40;36.24
56992;BME280;42885;49.754;18.636;2023-07-31T13:25:10;97892.47;;;31.59;35.95
56992;BME280;42885;49.754;18.636;2023-07-31T13:27:41;97898.23;;;30.88;34.80
56992;BME280;42885;49.754;18.636;2023-07-31T13:30:13;97893.67;;;31.66;34.59